createdAt,value
2018-01-11T00:00:18.635Z,100.00
2018-01-11T00:02:46.623Z,100.00
2018-01-11T00:05:14.480Z,100.00
2018-01-11T00:07:52.378Z,100.00
2018-01-11T00:10:21.386Z,100.00
2018-01-11T00:12:49.265Z,100.00
2018-01-11T00:15:17.135Z,100.00
2018-01-11T00:17:50.008Z,100.00
2018-01-11T00:20:18.911Z,100.00
2018-01-11T00:22:48.826Z,100.00
2018-01-11T00:25:20.075Z,100.00
2018-01-11T00:30:23.290Z,100.00
2018-01-11T00:32:51.173Z,100.00
2018-01-11T00:35:18.998Z,100.00
2018-01-11T00:37:46.767Z,100.00
2018-01-11T00:43:12.191Z,100.00
2018-01-11T00:45:40.063Z,100.00
2018-01-11T00:48:11.715Z,100.00
2018-01-11T00:50:39.683Z,100.00
2018-01-11T00:53:07.457Z,100.00
2018-01-11T00:55:35.208Z,100.00
2018-01-11T00:58:04.816Z,100.00
2018-01-11T01:00:32.707Z,100.00
2018-01-11T01:03:00.479Z,100.00
2018-01-11T01:05:28.257Z,100.00
2018-01-11T01:07:56.132Z,100.00
2018-01-11T01:10:23.984Z,100.00
2018-01-11T01:12:53.453Z,100.00
2018-01-11T01:15:21.369Z,100.00
2018-01-11T01:17:49.389Z,100.00
2018-01-11T01:20:17.511Z,100.00
2018-01-11T01:22:45.499Z,100.00
2018-01-11T01:25:13.988Z,100.00
2018-01-11T01:27:41.915Z,100.00
2018-01-11T01:30:09.671Z,100.00
2018-01-11T01:32:39.081Z,100.00
2018-01-11T01:35:08.703Z,100.00
2018-01-11T01:37:36.612Z,100.00
2018-01-11T01:40:04.488Z,100.00
2018-01-11T01:42:32.349Z,100.00
2018-01-11T01:45:00.212Z,100.00
2018-01-11T01:47:28.710Z,100.00
2018-01-11T01:49:58.278Z,100.00
2018-01-11T01:52:26.270Z,100.00
2018-01-11T01:54:54.038Z,100.00
2018-01-11T01:57:28.119Z,100.00
2018-01-11T01:59:56.663Z,100.00
2018-01-11T02:02:26.471Z,100.00
2018-01-11T02:04:54.353Z,100.00
2018-01-11T02:07:22.928Z,100.00
2018-01-11T02:09:50.798Z,100.00
2018-01-11T02:12:18.767Z,100.00
2018-01-11T02:14:47.373Z,100.00
2018-01-11T02:17:22.865Z,100.00
2018-01-11T02:19:53.357Z,100.00
2018-01-11T02:22:21.297Z,100.00
2018-01-11T02:24:53.675Z,100.00
2018-01-11T02:27:35.834Z,100.00
2018-01-11T02:30:04.354Z,100.00
2018-01-11T02:32:55.328Z,100.00
2018-01-11T02:35:23.218Z,100.00
2018-01-11T02:37:52.804Z,100.00
2018-01-11T02:40:22.492Z,100.00
2018-01-11T02:42:50.412Z,100.00
2018-01-11T02:45:18.172Z,100.00
2018-01-11T02:47:48.900Z,100.00
2018-01-11T02:50:33.960Z,100.00
2018-01-11T02:53:01.736Z,100.00
2018-01-11T02:55:31.215Z,100.00
2018-01-11T02:57:59.232Z,100.00
2018-01-11T03:00:31.775Z,100.00
2018-01-11T03:02:59.686Z,100.00
2018-01-11T03:05:36.548Z,100.00
2018-01-11T03:08:07.335Z,100.00
2018-01-11T03:10:35.136Z,100.00
2018-01-11T03:13:02.871Z,100.00
2018-01-11T03:15:30.692Z,100.00
2018-01-11T03:17:58.441Z,100.00
2018-01-11T03:20:28.924Z,100.00
2018-01-11T03:22:58.916Z,100.00
2018-01-11T03:25:27.814Z,100.00
2018-01-11T03:28:00.206Z,100.00
2018-01-11T03:30:28.062Z,100.00
2018-01-11T03:32:57.286Z,100.00
2018-01-11T03:35:25.849Z,100.00
2018-01-11T03:37:55.375Z,100.00
2018-01-11T03:40:36.108Z,100.00
2018-01-11T03:43:03.870Z,100.00
2018-01-11T03:45:32.842Z,100.00
2018-01-11T03:48:03.333Z,100.00
2018-01-11T03:50:33.324Z,100.00
2018-01-11T03:53:01.834Z,100.00
2018-01-11T03:55:31.406Z,100.00
2018-01-11T03:58:00.011Z,100.00
2018-01-11T04:00:27.846Z,100.00
2018-01-11T04:02:55.580Z,100.00
2018-01-11T04:05:25.207Z,100.00
2018-01-11T04:07:53.100Z,100.00
2018-01-11T04:10:21.190Z,100.00
2018-01-11T04:12:49.542Z,100.00
2018-01-11T04:15:17.290Z,100.00
2018-01-11T04:17:45.826Z,100.00
2018-01-11T04:20:13.590Z,100.00
2018-01-11T04:22:41.444Z,100.00
2018-01-11T04:25:24.154Z,100.00
2018-01-11T04:27:53.748Z,100.00
2018-01-11T04:30:23.538Z,100.00
2018-01-11T04:32:52.190Z,100.00
2018-01-11T04:35:19.966Z,100.00
2018-01-11T04:37:49.240Z,100.00
2018-01-11T04:40:23.296Z,100.00
2018-01-11T04:42:52.286Z,100.00
2018-01-11T04:45:21.540Z,100.00
2018-01-11T04:47:53.712Z,100.00
2018-01-11T04:50:25.296Z,100.00
2018-01-11T04:53:16.266Z,100.00
2018-01-11T04:55:45.693Z,100.00
2018-01-11T04:58:15.265Z,100.00
2018-01-11T05:00:48.679Z,100.00
2018-01-11T05:05:50.250Z,100.00
2018-01-11T05:08:24.364Z,100.00
2018-01-11T05:10:52.326Z,100.00
2018-01-11T05:13:26.768Z,100.00
2018-01-11T05:15:54.768Z,100.00
2018-01-11T05:18:23.338Z,100.00
2018-01-11T05:20:52.900Z,100.00
2018-01-11T05:23:23.300Z,100.00
2018-01-11T05:25:53.090Z,100.00
2018-01-11T05:28:22.671Z,100.00
2018-01-11T05:30:50.563Z,100.00
2018-01-11T05:33:22.661Z,100.00
2018-01-11T05:35:50.596Z,100.00
2018-01-11T05:38:20.010Z,100.00
2018-01-11T05:40:47.898Z,100.00
2018-01-11T05:43:16.457Z,100.00
2018-01-11T05:45:44.207Z,100.00
2018-01-11T05:48:17.769Z,100.00
2018-01-11T05:50:45.705Z,100.00
2018-01-11T05:53:15.231Z,100.00
2018-01-11T05:55:45.439Z,100.00
2018-01-11T05:58:13.409Z,100.00
2018-01-11T06:00:44.461Z,100.00
2018-01-11T06:03:12.321Z,100.00
2018-01-11T06:05:41.066Z,100.00
2018-01-11T06:08:11.790Z,100.00
2018-01-11T06:10:39.705Z,100.00
2018-01-11T06:13:07.573Z,100.00
2018-01-11T06:15:35.437Z,100.00
2018-01-11T06:18:03.213Z,100.00
2018-01-11T06:20:32.592Z,100.00
2018-01-11T06:23:00.608Z,100.00
2018-01-11T06:25:29.083Z,100.00
2018-01-11T06:27:57.877Z,100.00
2018-01-11T06:30:29.659Z,100.00
2018-01-11T06:33:05.588Z,100.00
2018-01-11T06:35:34.189Z,100.00
2018-01-11T06:38:02.048Z,100.00
2018-01-11T06:40:31.969Z,100.00
2018-01-11T06:43:02.916Z,100.00
2018-01-11T06:45:30.989Z,100.00
2018-01-11T06:47:58.750Z,100.00
2018-01-11T06:50:26.617Z,100.00
2018-01-11T06:52:56.005Z,100.00
2018-01-11T06:55:25.986Z,100.00
2018-01-11T06:57:53.906Z,100.00
2018-01-11T07:00:39.888Z,100.00
2018-01-11T07:03:07.885Z,100.00
2018-01-11T07:05:35.735Z,100.00
2018-01-11T07:08:08.003Z,100.00
2018-01-11T07:10:38.741Z,100.00
2018-01-11T07:13:07.323Z,100.00
2018-01-11T07:15:41.848Z,100.00
2018-01-11T07:18:13.503Z,100.00
2018-01-11T07:20:41.493Z,100.00
2018-01-11T07:23:09.251Z,100.00
2018-01-11T07:25:38.919Z,100.00
2018-01-11T07:28:06.817Z,100.00
2018-01-11T07:30:34.984Z,100.00
2018-01-11T07:33:14.848Z,100.00
2018-01-11T07:35:42.937Z,100.00
2018-01-11T07:38:12.261Z,100.00
2018-01-11T07:40:42.323Z,100.00
2018-01-11T07:43:12.061Z,100.00
2018-01-11T07:48:14.947Z,100.00
2018-01-11T07:50:42.829Z,100.00
2018-01-11T07:53:11.697Z,100.00
2018-01-11T07:55:42.370Z,100.00
2018-01-11T07:58:10.222Z,100.00
2018-01-11T08:00:38.094Z,100.00
2018-01-11T08:03:09.769Z,100.00
2018-01-11T08:05:37.535Z,100.00
2018-01-11T08:10:38.052Z,100.00
2018-01-11T08:13:05.955Z,100.00
2018-01-11T08:15:40.155Z,100.00
2018-01-11T08:18:08.346Z,100.00
2018-01-11T08:20:36.227Z,100.00
2018-01-11T08:23:04.120Z,100.00
2018-01-11T08:25:31.953Z,100.00
2018-01-11T08:28:03.482Z,100.00
2018-01-11T08:30:31.433Z,100.00
2018-01-11T08:32:59.455Z,100.00
2018-01-11T08:35:27.323Z,100.00
2018-01-11T08:37:56.205Z,99.97
2018-01-11T08:40:38.517Z,99.90
2018-01-11T08:43:08.953Z,99.98
2018-01-11T08:45:42.909Z,99.95
2018-01-11T08:48:10.722Z,99.91
2018-01-11T08:50:38.574Z,100.00
2018-01-11T08:53:08.181Z,100.00
2018-01-11T08:55:37.762Z,100.00
2018-01-11T08:58:07.477Z,100.00
2018-01-11T09:00:35.293Z,100.00
2018-01-11T09:03:04.860Z,100.00
2018-01-11T09:05:32.872Z,99.98
2018-01-11T09:08:03.994Z,99.98
2018-01-11T09:10:38.327Z,99.96
2018-01-11T09:13:07.316Z,100.00
2018-01-11T09:15:37.362Z,100.00
2018-01-11T09:18:05.333Z,100.00
2018-01-11T09:20:33.182Z,100.00
2018-01-11T09:23:02.815Z,100.00
2018-01-11T09:25:34.658Z,99.99
2018-01-11T09:28:03.263Z,100.00
2018-01-11T09:30:31.853Z,100.00
2018-01-11T09:33:09.176Z,100.00
2018-01-11T09:35:37.075Z,100.00
2018-01-11T09:38:16.351Z,100.00
2018-01-11T09:40:44.197Z,100.00
2018-01-11T09:43:13.807Z,100.00
2018-01-11T09:45:43.378Z,100.00
2018-01-11T09:48:14.864Z,100.00
2018-01-11T09:50:44.468Z,100.00
2018-01-11T09:53:12.550Z,100.00
2018-01-11T09:55:45.214Z,100.00
2018-01-11T09:58:22.111Z,100.00
2018-01-11T10:00:49.872Z,99.89
2018-01-11T10:03:38.725Z,99.72
2018-01-11T10:06:06.564Z,99.64
2018-01-11T10:08:34.467Z,99.58
2018-01-11T10:11:04.022Z,99.49
2018-01-11T10:13:31.959Z,99.40
2018-01-11T10:15:59.820Z,99.27
2018-01-11T10:18:29.308Z,99.18
2018-01-11T10:20:57.194Z,99.07
2018-01-11T10:23:25.019Z,98.84
2018-01-11T10:25:53.042Z,98.72
2018-01-11T10:28:20.836Z,98.49
2018-01-11T10:30:48.806Z,98.31
2018-01-11T10:36:09.799Z,97.94
2018-01-11T10:38:39.374Z,97.66
2018-01-11T10:41:10.446Z,97.33
2018-01-11T10:43:39.128Z,97.28
2018-01-11T10:46:06.990Z,97.17
2018-01-11T10:48:36.574Z,96.87
2018-01-11T10:51:04.465Z,96.84
2018-01-11T10:53:33.567Z,96.69
2018-01-11T10:56:02.188Z,96.82
2018-01-11T10:58:42.813Z,96.52
2018-01-11T11:01:24.470Z,96.38
2018-01-11T11:03:52.313Z,96.35
2018-01-11T11:06:22.252Z,96.06
2018-01-11T11:08:50.168Z,96.05
2018-01-11T11:11:20.592Z,95.85
2018-01-11T11:13:50.118Z,95.80
2018-01-11T11:16:17.981Z,95.73
2018-01-11T11:18:45.956Z,95.71
2018-01-11T11:21:17.516Z,95.69
2018-01-11T11:23:49.178Z,95.90
2018-01-11T11:26:30.034Z,95.69
2018-01-11T11:31:31.055Z,95.54
2018-01-11T11:34:00.498Z,95.43
2018-01-11T11:36:28.466Z,95.35
2018-01-11T11:38:56.545Z,95.28
2018-01-11T11:41:32.679Z,95.35
2018-01-11T11:44:00.676Z,95.43
2018-01-11T11:46:30.166Z,95.30
2018-01-11T11:48:58.037Z,95.17
2018-01-11T11:51:29.712Z,95.27
2018-01-11T11:54:00.151Z,95.25
2018-01-11T11:56:28.121Z,95.19
2018-01-11T11:58:56.060Z,95.17
2018-01-11T12:01:30.794Z,95.12
2018-01-11T12:03:58.564Z,95.12
2018-01-11T12:06:26.444Z,95.04
2018-01-11T12:08:54.419Z,94.96
2018-01-11T12:11:24.006Z,94.89
2018-01-11T12:13:52.928Z,94.85
2018-01-11T12:16:20.777Z,94.49
2018-01-11T12:18:48.668Z,94.36
2018-01-11T12:21:18.287Z,94.28
2018-01-11T12:23:46.641Z,94.30
2018-01-11T12:26:17.284Z,94.31
2018-01-11T12:28:50.132Z,94.31
2018-01-11T12:31:20.653Z,94.30
2018-01-11T12:33:48.575Z,94.30
2018-01-11T12:36:17.936Z,94.34
2018-01-11T12:38:45.836Z,94.27
2018-01-11T12:41:14.959Z,94.24
2018-01-11T12:43:42.798Z,94.04
2018-01-11T12:46:22.991Z,94.07
2018-01-11T12:48:50.945Z,93.82
2018-01-11T12:51:18.817Z,93.63
2018-01-11T12:53:49.363Z,93.46
2018-01-11T12:56:29.579Z,93.42
2018-01-11T12:58:57.356Z,93.46
2018-01-11T13:01:27.459Z,93.48
2018-01-11T13:03:55.283Z,93.50
2018-01-11T13:06:23.130Z,93.45
2018-01-11T13:08:55.828Z,93.55
2018-01-11T13:11:36.567Z,93.54
2018-01-11T13:14:04.321Z,93.54
2018-01-11T13:16:32.253Z,93.69
2018-01-11T13:19:00.197Z,93.83
2018-01-11T13:21:29.903Z,93.83
2018-01-11T13:23:57.867Z,93.79
2018-01-11T13:26:25.728Z,93.83
2018-01-11T13:28:55.757Z,93.89
2018-01-11T13:31:30.261Z,93.91
2018-01-11T13:34:00.237Z,93.97
2018-01-11T13:36:31.237Z,93.84
2018-01-11T13:39:01.150Z,93.88
2018-01-11T13:41:30.595Z,93.95
2018-01-11T13:44:00.381Z,94.01
2018-01-11T13:46:28.449Z,93.93
2018-01-11T13:48:56.338Z,93.99
2018-01-11T13:51:24.220Z,94.11
2018-01-11T13:53:54.759Z,94.04
2018-01-11T13:56:36.081Z,94.11
2018-01-11T13:59:03.879Z,93.93
2018-01-11T14:01:31.816Z,93.93
2018-01-11T14:03:59.767Z,93.93
2018-01-11T14:06:39.663Z,93.97
2018-01-11T14:09:07.574Z,94.17
2018-01-11T14:11:37.489Z,94.33
2018-01-11T14:14:05.335Z,94.46
2018-01-11T14:16:33.174Z,94.38
2018-01-11T14:19:12.609Z,94.14
2018-01-11T14:21:40.689Z,94.10
2018-01-11T14:24:08.673Z,94.26
2018-01-11T14:26:38.341Z,94.28
2018-01-11T14:29:06.226Z,94.23
2018-01-11T14:31:34.141Z,94.19
2018-01-11T14:34:02.079Z,94.22
2018-01-11T14:36:29.953Z,94.26
2018-01-11T14:38:58.521Z,94.25
2018-01-11T14:41:28.225Z,94.39
2018-01-11T14:43:57.927Z,94.50
2018-01-11T14:46:25.837Z,94.61
2018-01-11T14:48:53.717Z,94.56
2018-01-11T14:51:38.699Z,94.49
2018-01-11T14:54:06.749Z,94.54
2018-01-11T14:56:43.140Z,94.58
2018-01-11T14:59:12.103Z,94.56
2018-01-11T15:01:42.557Z,94.62
2018-01-11T15:04:19.316Z,94.74
2018-01-11T15:06:47.104Z,94.74
2018-01-11T15:09:16.745Z,94.82
2018-01-11T15:11:50.900Z,94.93
2018-01-11T15:14:18.878Z,95.05
2018-01-11T15:16:49.374Z,95.13
2018-01-11T15:19:17.281Z,95.13
2018-01-11T15:21:45.082Z,95.28
2018-01-11T15:24:25.666Z,95.47
2018-01-11T15:26:53.558Z,95.69
2018-01-11T15:29:21.429Z,95.88
2018-01-11T15:31:55.253Z,95.97
2018-01-11T15:34:32.031Z,96.01
2018-01-11T15:37:01.721Z,96.03
2018-01-11T15:39:29.722Z,96.14
2018-01-11T15:41:57.691Z,96.20
2018-01-11T15:44:25.539Z,96.26
2018-01-11T15:46:53.439Z,96.29
2018-01-11T15:49:33.478Z,96.35
2018-01-11T15:52:01.316Z,96.37
2018-01-11T15:54:29.080Z,96.40
2018-01-11T15:56:58.720Z,96.41
2018-01-11T15:59:37.235Z,96.45
2018-01-11T16:02:05.216Z,96.50
2018-01-11T16:04:34.686Z,96.48
2018-01-11T16:07:02.684Z,96.52
2018-01-11T16:09:32.096Z,96.65
2018-01-11T16:12:00.210Z,96.75
2018-01-11T16:14:28.025Z,96.75
2018-01-11T16:16:55.995Z,96.76
2018-01-11T16:19:29.325Z,96.80
2018-01-11T16:21:58.986Z,96.89
2018-01-11T16:24:40.593Z,96.99
2018-01-11T16:27:08.768Z,96.96
2018-01-11T16:29:36.627Z,96.96
2018-01-11T16:32:04.496Z,96.96
2018-01-11T16:34:32.367Z,96.96
2018-01-11T16:37:00.255Z,97.01
2018-01-11T16:39:28.100Z,97.04
2018-01-11T16:41:56.098Z,97.09
2018-01-11T16:44:23.971Z,97.14
2018-01-11T16:46:53.641Z,97.17
2018-01-11T16:49:21.649Z,97.19
2018-01-11T16:51:49.665Z,97.23
2018-01-11T16:54:24.870Z,97.27
2018-01-11T16:56:54.404Z,97.27
2018-01-11T16:59:23.995Z,97.30
2018-01-11T17:01:52.057Z,97.30
2018-01-11T17:04:20.406Z,97.30
2018-01-11T17:06:50.054Z,97.32
2018-01-11T17:09:18.118Z,97.40
2018-01-11T17:11:46.096Z,97.36
2018-01-11T17:14:16.199Z,97.32
2018-01-11T17:16:43.923Z,97.36
2018-01-11T17:19:11.746Z,97.37
2018-01-11T17:21:40.445Z,97.37
2018-01-11T17:24:09.426Z,97.43
2018-01-11T17:26:37.316Z,97.38
2018-01-11T17:29:05.172Z,97.34
2018-01-11T17:31:34.805Z,97.31
2018-01-11T17:34:02.866Z,97.34
2018-01-11T17:36:31.443Z,97.36
2018-01-11T17:38:59.303Z,97.32
2018-01-11T17:41:29.089Z,97.30
2018-01-11T17:43:57.002Z,97.29
2018-01-11T17:46:24.868Z,97.23
2018-01-11T17:48:52.642Z,97.19
2018-01-11T17:51:23.138Z,97.13
2018-01-11T17:53:53.662Z,97.03
2018-01-11T17:56:21.779Z,96.94
2018-01-11T17:58:52.401Z,96.85
2018-01-11T18:01:20.244Z,96.79
2018-01-11T18:03:48.064Z,96.73
2018-01-11T18:06:16.825Z,96.67
2018-01-11T18:08:45.313Z,96.67
2018-01-11T18:11:13.118Z,96.67
2018-01-11T18:13:42.877Z,96.67
2018-01-11T18:16:10.978Z,96.64
2018-01-11T18:18:38.905Z,96.60
2018-01-11T18:21:08.482Z,96.57
2018-01-11T18:23:36.482Z,96.59
2018-01-11T18:26:05.043Z,96.61
2018-01-11T18:28:34.509Z,96.61
2018-01-11T18:31:05.141Z,96.58
2018-01-11T18:33:39.064Z,96.50
2018-01-11T18:36:07.188Z,96.52
2018-01-11T18:38:37.868Z,96.70
2018-01-11T18:41:05.885Z,96.84
2018-01-11T18:43:33.835Z,96.77
2018-01-11T18:46:02.448Z,96.87
2018-01-11T18:48:32.967Z,97.02
2018-01-11T18:51:04.872Z,97.20
2018-01-11T18:53:36.183Z,97.25
2018-01-11T18:56:05.445Z,97.15
2018-01-11T18:58:34.249Z,97.05
2018-01-11T19:01:03.458Z,96.89
2018-01-11T19:03:31.340Z,96.76
2018-01-11T19:05:59.472Z,96.69
2018-01-11T19:08:27.284Z,96.70
2018-01-11T19:10:55.172Z,96.63
2018-01-11T19:13:26.371Z,96.47
2018-01-11T19:15:57.792Z,96.40
2018-01-11T19:18:25.843Z,96.31
2018-01-11T19:20:54.374Z,96.22
2018-01-11T19:23:22.276Z,96.08
2018-01-11T19:25:50.660Z,96.09
2018-01-11T19:28:19.666Z,96.07
2018-01-11T19:30:48.338Z,96.07
2018-01-11T19:33:16.320Z,95.91
2018-01-11T19:35:44.389Z,95.75
2018-01-11T19:38:12.321Z,95.84
2018-01-11T19:40:40.554Z,95.85
2018-01-11T19:43:11.107Z,95.83
2018-01-11T19:45:39.248Z,95.88
2018-01-11T19:48:08.524Z,95.92
2018-01-11T19:50:36.637Z,95.97
2018-01-11T19:53:06.580Z,96.07
2018-01-11T19:55:36.961Z,96.03
2018-01-11T19:58:05.263Z,95.97
2018-01-11T20:00:33.391Z,96.01
2018-01-11T20:03:01.510Z,96.04
2018-01-11T20:05:29.728Z,96.03
2018-01-11T20:07:58.654Z,96.00
2018-01-11T20:10:27.658Z,95.97
2018-01-11T20:12:55.698Z,96.03
2018-01-11T20:15:23.730Z,96.12
2018-01-11T20:17:52.568Z,96.12
2018-01-11T20:20:23.760Z,96.06
2018-01-11T20:22:53.641Z,96.04
2018-01-11T20:25:25.523Z,96.00
2018-01-11T20:27:55.378Z,96.04
2018-01-11T20:30:23.615Z,96.06
2018-01-11T20:32:54.786Z,96.06
2018-01-11T20:35:22.966Z,96.03
2018-01-11T20:37:51.033Z,96.06
2018-01-11T20:40:19.210Z,96.04
2018-01-11T20:42:48.874Z,95.99
2018-01-11T20:45:18.747Z,96.03
2018-01-11T20:47:46.738Z,95.94
2018-01-11T20:50:19.493Z,95.80
2018-01-11T20:52:50.845Z,95.72
2018-01-11T20:55:22.861Z,95.68
2018-01-11T20:57:51.946Z,95.67
2018-01-11T21:00:20.076Z,95.76
2018-01-11T21:02:50.368Z,95.53
2018-01-11T21:05:23.956Z,95.50
2018-01-11T21:07:53.712Z,95.48
2018-01-11T21:10:21.868Z,95.49
2018-01-11T21:12:50.208Z,95.45
2018-01-11T21:15:19.690Z,95.44
2018-01-11T21:17:47.839Z,95.42
2018-01-11T21:20:18.483Z,95.36
2018-01-11T21:22:46.565Z,95.38
2018-01-11T21:25:15.314Z,95.39
2018-01-11T21:27:43.139Z,95.06
2018-01-11T21:30:12.056Z,95.04
2018-01-11T21:32:40.832Z,95.04
2018-01-11T21:35:10.408Z,94.87
2018-01-11T21:37:40.003Z,94.73
2018-01-11T21:40:08.720Z,94.67
2018-01-11T21:42:36.687Z,94.62
2018-01-11T21:45:04.558Z,94.63
2018-01-11T21:47:32.420Z,94.63
2018-01-11T21:50:00.277Z,94.61
2018-01-11T21:52:29.981Z,94.51
2018-01-11T21:54:57.961Z,94.50
2018-01-11T21:57:32.792Z,94.52
2018-01-11T22:00:00.593Z,94.50
2018-01-11T22:02:34.630Z,94.47
2018-01-11T22:05:04.125Z,94.44
2018-01-11T22:07:35.971Z,94.18
2018-01-11T22:10:03.826Z,94.01
2018-01-11T22:12:31.800Z,93.86
2018-01-11T22:14:59.773Z,93.72
2018-01-11T22:17:29.699Z,93.58
2018-01-11T22:19:59.235Z,93.41
2018-01-11T22:22:28.912Z,93.33
2018-01-11T22:24:56.702Z,93.04
2018-01-11T22:27:27.285Z,92.88
2018-01-11T22:29:55.160Z,92.69
2018-01-11T22:32:27.291Z,92.38
2018-01-11T22:34:58.197Z,92.27
2018-01-11T22:37:26.773Z,92.23
2018-01-11T22:39:56.389Z,91.93
2018-01-11T22:42:24.228Z,91.83
2018-01-11T22:44:52.129Z,91.80
2018-01-11T22:47:23.880Z,91.81
2018-01-11T22:49:53.482Z,92.07
2018-01-11T22:52:22.083Z,92.29
2018-01-11T22:54:50.168Z,92.26
2018-01-11T22:57:18.032Z,92.36
2018-01-11T22:59:45.814Z,92.47
2018-01-11T23:02:13.767Z,92.55
2018-01-11T23:04:46.416Z,92.58
2018-01-11T23:07:14.284Z,92.60
2018-01-11T23:09:43.668Z,92.66
2018-01-11T23:12:12.300Z,92.72
2018-01-11T23:14:55.429Z,92.77
2018-01-11T23:17:23.240Z,92.82
2018-01-11T23:19:53.602Z,92.87
2018-01-11T23:22:21.423Z,92.86
2018-01-11T23:24:55.809Z,92.81
2018-01-11T23:27:23.659Z,92.82
2018-01-11T23:29:52.162Z,92.84
2018-01-11T23:32:21.055Z,92.88
2018-01-11T23:34:50.533Z,92.88
2018-01-11T23:37:20.463Z,93.01
2018-01-11T23:39:48.243Z,93.09
2018-01-11T23:42:15.998Z,93.23
2018-01-11T23:44:46.452Z,93.24
2018-01-11T23:47:16.923Z,93.06
2018-01-11T23:49:45.553Z,93.03
2018-01-11T23:52:16.528Z,93.12
2018-01-11T23:54:45.069Z,93.16
2018-01-11T23:57:12.878Z,93.22
2018-01-11T23:59:42.348Z,93.27
